sensor_id;sensor_type;location;lat;lon;timestamp;P1;durP1;ratioP1;P2;durP2;ratioP2
18568;SDS011;14780;48.316;-1.050;2024-01-15T00:01:10;6.93;;;4.53;;
18568;SDS011;14780;48.316;-1.050;2024-01-15T00:03:55;6.45;;;4.50;;
18568;SDS011;14780;48.316;-1.050;2024-01-15T00:06:39;6.43;;;4.57;;
18568;SDS011;14780;48.316;-1.050;2024-01-15T00:09:24;7.43;;;4.30;;
18568;SDS011;14780;48.316;-1.050;2024-01-15T00:12:11;6.17;;;4.30;;
18568;SDS011;14780;48.316;-1.050;2024-01-15T00:14:55;6.75;;;4.40;;
18568;SDS011;14780;48.316;-1.050;2024-01-15T00:17:40;7.50;;;5.00;;
18568;SDS011;14780;48.316;-1.050;2024-01-15T00:20:24;7.32;;;4.55;;
18568;SDS011;14780;48.316;-1.050;2024-01-15T00:23:09;5.85;;;4.30;;
18568;SDS011;14780;48.316;-1.050;2024-01-15T00:25:53;6.28;;;4.28;;
18568;SDS011;14780;48.316;-1.050;2024-01-15T00:28:39;6.60;;;4.60;;
18568;SDS011;14780;48.316;-1.050;2024-01-15T00:31:23;6.10;;;4.35;;
18568;SDS011;14780;48.316;-1.050;2024-01-15T00:34:08;6.47;;;4.30;;
18568;SDS011;14780;48.316;-1.050;2024-01-15T00:36:52;6.07;;;4.50;;
18568;SDS011;14780;48.316;-1.050;2024-01-15T00:39:37;6.00;;;4.47;;
18568;SDS011;14780;48.316;-1.050;2024-01-15T00:42:22;7.13;;;4.50;;
18568;SDS011;14780;48.316;-1.050;2024-01-15T00:45:07;5.80;;;4.28;;
18568;SDS011;14780;48.316;-1.050;2024-01-15T00:47:52;6.10;;;4.63;;
18568;SDS011;14780;48.316;-1.050;2024-01-15T00:50:36;6.18;;;4.22;;
18568;SDS011;14780;48.316;-1.050;2024-01-15T00:53:21;7.90;;;4.80;;
18568;SDS011;14780;48.316;-1.050;2024-01-15T00:56:05;6.88;;;4.50;;
18568;SDS011;14780;48.316;-1.050;2024-01-15T00:58:50;5.68;;;4.20;;
18568;SDS011;14780;48.316;-1.050;2024-01-15T01:01:34;5.45;;;4.20;;
18568;SDS011;14780;48.316;-1.050;2024-01-15T01:04:19;5.63;;;4.47;;
18568;SDS011;14780;48.316;-1.050;2024-01-15T01:07:04;6.35;;;4.15;;
18568;SDS011;14780;48.316;-1.050;2024-01-15T01:09:48;5.65;;;4.47;;
18568;SDS011;14780;48.316;-1.050;2024-01-15T01:12:35;6.55;;;4.30;;
18568;SDS011;14780;48.316;-1.050;2024-01-15T01:15:19;7.85;;;4.10;;
18568;SDS011;14780;48.316;-1.050;2024-01-15T01:18:05;5.75;;;4.30;;
18568;SDS011;14780;48.316;-1.050;2024-01-15T01:20:49;5.53;;;4.32;;
18568;SDS011;14780;48.316;-1.050;2024-01-15T01:23:34;5.45;;;4.15;;
18568;SDS011;14780;48.316;-1.050;2024-01-15T01:26:19;5.65;;;4.13;;
18568;SDS011;14780;48.316;-1.050;2024-01-15T01:29:03;5.38;;;4.38;;
18568;SDS011;14780;48.316;-1.050;2024-01-15T01:31:48;7.40;;;4.50;;
18568;SDS011;14780;48.316;-1.050;2024-01-15T01:34:32;5.45;;;4.22;;
18568;SDS011;14780;48.316;-1.050;2024-01-15T01:37:23;6.85;;;4.50;;
18568;SDS011;14780;48.316;-1.050;2024-01-15T01:40:08;6.47;;;4.40;;
18568;SDS011;14780;48.316;-1.050;2024-01-15T01:42:54;8.02;;;4.40;;
18568;SDS011;14780;48.316;-1.050;2024-01-15T01:45:38;5.38;;;4.32;;
18568;SDS011;14780;48.316;-1.050;2024-01-15T01:48:23;6.20;;;4.65;;
18568;SDS011;14780;48.316;-1.050;2024-01-15T01:51:09;6.10;;;4.50;;
18568;SDS011;14780;48.316;-1.050;2024-01-15T01:53:55;6.20;;;4.72;;
18568;SDS011;14780;48.316;-1.050;2024-01-15T01:56:40;5.90;;;4.50;;
18568;SDS011;14780;48.316;-1.050;2024-01-15T01:59:26;5.50;;;4.28;;
18568;SDS011;14780;48.316;-1.050;2024-01-15T02:02:12;5.85;;;4.57;;
18568;SDS011;14780;48.316;-1.050;2024-01-15T02:04:58;5.57;;;4.40;;
18568;SDS011;14780;48.316;-1.050;2024-01-15T02:07:42;5.95;;;4.47;;
18568;SDS011;14780;48.316;-1.050;2024-01-15T02:10:28;5.70;;;4.13;;
18568;SDS011;14780;48.316;-1.050;2024-01-15T02:13:13;6.85;;;4.60;;
18568;SDS011;14780;48.316;-1.050;2024-01-15T02:15:58;5.75;;;4.40;;
18568;SDS011;14780;48.316;-1.050;2024-01-15T02:18:43;5.95;;;4.22;;
18568;SDS011;14780;48.316;-1.050;2024-01-15T02:21:28;5.15;;;4.20;;
18568;SDS011;14780;48.316;-1.050;2024-01-15T02:24:14;7.05;;;4.32;;
18568;SDS011;14780;48.316;-1.050;2024-01-15T02:26:59;6.10;;;4.40;;
18568;SDS011;14780;48.316;-1.050;2024-01-15T02:29:44;6.00;;;4.23;;
18568;SDS011;14780;48.316;-1.050;2024-01-15T02:32:30;5.72;;;4.30;;
18568;SDS011;14780;48.316;-1.050;2024-01-15T02:35:14;7.28;;;4.50;;
18568;SDS011;14780;48.316;-1.050;2024-01-15T02:37:59;5.82;;;4.50;;
18568;SDS011;14780;48.316;-1.050;2024-01-15T02:40:44;6.32;;;4.38;;
18568;SDS011;14780;48.316;-1.050;2024-01-15T02:43:29;5.87;;;4.40;;
18568;SDS011;14780;48.316;-1.050;2024-01-15T02:46:14;6.03;;;4.68;;
18568;SDS011;14780;48.316;-1.050;2024-01-15T02:48:59;5.53;;;4.32;;
18568;SDS011;14780;48.316;-1.050;2024-01-15T02:51:44;6.40;;;4.65;;
18568;SDS011;14780;48.316;-1.050;2024-01-15T02:54:30;6.50;;;4.70;;
18568;SDS011;14780;48.316;-1.050;2024-01-15T02:57:15;6.93;;;4.95;;
18568;SDS011;14780;48.316;-1.050;2024-01-15T02:59:59;6.28;;;5.00;;
18568;SDS011;14780;48.316;-1.050;2024-01-15T03:02:44;5.95;;;4.43;;
18568;SDS011;14780;48.316;-1.050;2024-01-15T03:05:29;5.72;;;4.38;;
18568;SDS011;14780;48.316;-1.050;2024-01-15T03:08:14;7.15;;;4.88;;
18568;SDS011;14780;48.316;-1.050;2024-01-15T03:10:58;5.68;;;4.63;;
18568;SDS011;14780;48.316;-1.050;2024-01-15T03:13:43;6.77;;;4.97;;
18568;SDS011;14780;48.316;-1.050;2024-01-15T03:16:28;7.00;;;4.88;;
18568;SDS011;14780;48.316;-1.050;2024-01-15T03:19:12;5.57;;;4.60;;
18568;SDS011;14780;48.316;-1.050;2024-01-15T03:21:57;5.95;;;4.70;;
18568;SDS011;14780;48.316;-1.050;2024-01-15T03:24:44;5.90;;;4.78;;
18568;SDS011;14780;48.316;-1.050;2024-01-15T03:27:29;5.68;;;4.68;;
18568;SDS011;14780;48.316;-1.050;2024-01-15T03:30:14;6.35;;;4.78;;
18568;SDS011;14780;48.316;-1.050;2024-01-15T03:32:59;6.47;;;4.95;;
18568;SDS011;14780;48.316;-1.050;2024-01-15T03:35:44;6.75;;;5.10;;
18568;SDS011;14780;48.316;-1.050;2024-01-15T03:38:28;6.03;;;4.87;;
18568;SDS011;14780;48.316;-1.050;2024-01-15T03:41:13;7.18;;;4.97;;
18568;SDS011;14780;48.316;-1.050;2024-01-15T03:43:58;6.15;;;4.75;;
18568;SDS011;14780;48.316;-1.050;2024-01-15T03:46:42;6.55;;;5.25;;
18568;SDS011;14780;48.316;-1.050;2024-01-15T03:49:27;6.57;;;5.10;;
18568;SDS011;14780;48.316;-1.050;2024-01-15T03:52:12;6.50;;;5.20;;
18568;SDS011;14780;48.316;-1.050;2024-01-15T03:54:56;7.65;;;5.38;;
18568;SDS011;14780;48.316;-1.050;2024-01-15T03:57:41;7.38;;;5.47;;
18568;SDS011;14780;48.316;-1.050;2024-01-15T04:00:26;6.85;;;5.45;;
18568;SDS011;14780;48.316;-1.050;2024-01-15T04:03:11;8.02;;;5.40;;
18568;SDS011;14780;48.316;-1.050;2024-01-15T04:05:55;6.22;;;4.88;;
18568;SDS011;14780;48.316;-1.050;2024-01-15T04:08:40;6.22;;;4.70;;
18568;SDS011;14780;48.316;-1.050;2024-01-15T04:11:25;6.78;;;5.18;;
18568;SDS011;14780;48.316;-1.050;2024-01-15T04:14:09;6.57;;;5.00;;
18568;SDS011;14780;48.316;-1.050;2024-01-15T04:16:54;6.95;;;5.32;;
18568;SDS011;14780;48.316;-1.050;2024-01-15T04:19:39;7.03;;;5.22;;
18568;SDS011;14780;48.316;-1.050;2024-01-15T04:22:27;7.27;;;4.97;;
18568;SDS011;14780;48.316;-1.050;2024-01-15T04:25:12;7.07;;;5.55;;
18568;SDS011;14780;48.316;-1.050;2024-01-15T04:27:57;7.13;;;5.40;;
18568;SDS011;14780;48.316;-1.050;2024-01-15T04:30:42;7.15;;;5.13;;
18568;SDS011;14780;48.316;-1.050;2024-01-15T04:33:27;7.05;;;5.35;;
18568;SDS011;14780;48.316;-1.050;2024-01-15T04:36:11;6.90;;;5.20;;
18568;SDS011;14780;48.316;-1.050;2024-01-15T04:38:56;7.20;;;5.43;;
18568;SDS011;14780;48.316;-1.050;2024-01-15T04:41:41;6.72;;;5.10;;
18568;SDS011;14780;48.316;-1.050;2024-01-15T04:44:25;6.10;;;5.05;;
18568;SDS011;14780;48.316;-1.050;2024-01-15T04:47:10;7.45;;;5.50;;
18568;SDS011;14780;48.316;-1.050;2024-01-15T04:49:55;6.78;;;5.13;;
18568;SDS011;14780;48.316;-1.050;2024-01-15T04:52:39;7.32;;;5.60;;
18568;SDS011;14780;48.316;-1.050;2024-01-15T04:55:24;7.70;;;5.85;;
18568;SDS011;14780;48.316;-1.050;2024-01-15T04:58:09;7.83;;;5.70;;
18568;SDS011;14780;48.316;-1.050;2024-01-15T05:00:53;7.25;;;5.45;;
18568;SDS011;14780;48.316;-1.050;2024-01-15T05:03:38;7.03;;;5.50;;
18568;SDS011;14780;48.316;-1.050;2024-01-15T05:06:23;7.43;;;5.65;;
18568;SDS011;14780;48.316;-1.050;2024-01-15T05:09:07;7.70;;;5.68;;
18568;SDS011;14780;48.316;-1.050;2024-01-15T05:11:52;7.50;;;5.65;;
18568;SDS011;14780;48.316;-1.050;2024-01-15T05:14:36;6.63;;;5.22;;
18568;SDS011;14780;48.316;-1.050;2024-01-15T05:17:21;7.22;;;5.53;;
18568;SDS011;14780;48.316;-1.050;2024-01-15T05:20:05;6.75;;;5.53;;
18568;SDS011;14780;48.316;-1.050;2024-01-15T05:22:50;7.90;;;5.82;;
18568;SDS011;14780;48.316;-1.050;2024-01-15T05:25:35;6.93;;;5.50;;
18568;SDS011;14780;48.316;-1.050;2024-01-15T05:28:19;6.85;;;5.50;;
18568;SDS011;14780;48.316;-1.050;2024-01-15T05:31:04;7.35;;;5.63;;
18568;SDS011;14780;48.316;-1.050;2024-01-15T05:33:49;7.40;;;5.47;;
18568;SDS011;14780;48.316;-1.050;2024-01-15T05:36:33;7.88;;;5.80;;
18568;SDS011;14780;48.316;-1.050;2024-01-15T05:39:18;7.30;;;5.65;;
18568;SDS011;14780;48.316;-1.050;2024-01-15T05:42:02;7.37;;;5.43;;
18568;SDS011;14780;48.316;-1.050;2024-01-15T05:44:48;6.55;;;5.38;;
18568;SDS011;14780;48.316;-1.050;2024-01-15T05:47:33;7.05;;;5.60;;
18568;SDS011;14780;48.316;-1.050;2024-01-15T05:50:17;6.70;;;5.43;;
18568;SDS011;14780;48.316;-1.050;2024-01-15T05:53:02;6.97;;;5.30;;
18568;SDS011;14780;48.316;-1.050;2024-01-15T05:55:47;7.30;;;5.45;;
18568;SDS011;14780;48.316;-1.050;2024-01-15T05:58:32;6.53;;;5.38;;
18568;SDS011;14780;48.316;-1.050;2024-01-15T06:01:16;6.60;;;5.07;;
18568;SDS011;14780;48.316;-1.050;2024-01-15T06:04:01;6.90;;;5.30;;
18568;SDS011;14780;48.316;-1.050;2024-01-15T06:06:46;6.70;;;5.15;;
18568;SDS011;14780;48.316;-1.050;2024-01-15T06:09:30;6.75;;;5.30;;
18568;SDS011;14780;48.316;-1.050;2024-01-15T06:12:15;6.57;;;5.38;;
18568;SDS011;14780;48.316;-1.050;2024-01-15T06:14:59;7.00;;;5.22;;
18568;SDS011;14780;48.316;-1.050;2024-01-15T06:17:44;6.18;;;5.13;;
18568;SDS011;14780;48.316;-1.050;2024-01-15T06:20:28;6.75;;;5.22;;
18568;SDS011;14780;48.316;-1.050;2024-01-15T06:23:13;6.68;;;5.10;;
18568;SDS011;14780;48.316;-1.050;2024-01-15T06:25:57;6.93;;;5.43;;
18568;SDS011;14780;48.316;-1.050;2024-01-15T06:28:42;7.40;;;5.47;;
18568;SDS011;14780;48.316;-1.050;2024-01-15T06:31:27;6.55;;;5.10;;
18568;SDS011;14780;48.316;-1.050;2024-01-15T06:34:12;6.65;;;5.15;;
18568;SDS011;14780;48.316;-1.050;2024-01-15T06:36:58;6.50;;;5.10;;
18568;SDS011;14780;48.316;-1.050;2024-01-15T06:39:43;6.15;;;5.03;;
18568;SDS011;14780;48.316;-1.050;2024-01-15T06:42:27;6.35;;;5.05;;
18568;SDS011;14780;48.316;-1.050;2024-01-15T06:45:12;6.13;;;4.95;;
18568;SDS011;14780;48.316;-1.050;2024-01-15T06:47:57;6.60;;;5.47;;
18568;SDS011;14780;48.316;-1.050;2024-01-15T06:50:42;6.53;;;5.28;;
18568;SDS011;14780;48.316;-1.050;2024-01-15T06:53:27;5.93;;;4.80;;
18568;SDS011;14780;48.316;-1.050;2024-01-15T06:56:12;6.78;;;5.07;;
18568;SDS011;14780;48.316;-1.050;2024-01-15T06:58:57;6.23;;;5.03;;
18568;SDS011;14780;48.316;-1.050;2024-01-15T07:01:41;6.60;;;4.97;;
18568;SDS011;14780;48.316;-1.050;2024-01-15T07:04:26;7.13;;;4.90;;
18568;SDS011;14780;48.316;-1.050;2024-01-15T07:07:11;6.82;;;4.80;;
18568;SDS011;14780;48.316;-1.050;2024-01-15T07:09:56;6.50;;;4.63;;
18568;SDS011;14780;48.316;-1.050;2024-01-15T07:12:43;7.32;;;5.05;;
18568;SDS011;14780;48.316;-1.050;2024-01-15T07:15:28;6.85;;;5.25;;
18568;SDS011;14780;48.316;-1.050;2024-01-15T07:18:13;7.43;;;4.85;;
18568;SDS011;14780;48.316;-1.050;2024-01-15T07:20:57;7.83;;;4.93;;
18568;SDS011;14780;48.316;-1.050;2024-01-15T07:23:42;7.05;;;5.00;;
18568;SDS011;14780;48.316;-1.050;2024-01-15T07:26:27;6.78;;;4.70;;
18568;SDS011;14780;48.316;-1.050;2024-01-15T07:29:13;7.30;;;4.82;;
18568;SDS011;14780;48.316;-1.050;2024-01-15T07:31:58;5.75;;;4.60;;
18568;SDS011;14780;48.316;-1.050;2024-01-15T07:34:43;6.30;;;4.80;;
18568;SDS011;14780;48.316;-1.050;2024-01-15T07:37:27;7.22;;;4.93;;
18568;SDS011;14780;48.316;-1.050;2024-01-15T07:40:12;7.20;;;4.65;;
18568;SDS011;14780;48.316;-1.050;2024-01-15T07:42:57;5.95;;;4.60;;
18568;SDS011;14780;48.316;-1.050;2024-01-15T07:45:42;7.78;;;5.07;;
18568;SDS011;14780;48.316;-1.050;2024-01-15T07:48:27;7.95;;;5.47;;
18568;SDS011;14780;48.316;-1.050;2024-01-15T07:51:11;7.43;;;5.22;;
18568;SDS011;14780;48.316;-1.050;2024-01-15T07:53:56;6.40;;;5.00;;
18568;SDS011;14780;48.316;-1.050;2024-01-15T07:56:53;6.90;;;5.40;;
18568;SDS011;14780;48.316;-1.050;2024-01-15T07:59:46;6.57;;;4.65;;
18568;SDS011;14780;48.316;-1.050;2024-01-15T08:02:31;7.15;;;5.38;;
18568;SDS011;14780;48.316;-1.050;2024-01-15T08:05:16;6.93;;;5.18;;
18568;SDS011;14780;48.316;-1.050;2024-01-15T08:08:00;7.75;;;4.75;;
18568;SDS011;14780;48.316;-1.050;2024-01-15T08:10:45;8.70;;;5.05;;
18568;SDS011;14780;48.316;-1.050;2024-01-15T08:13:29;6.07;;;4.65;;
18568;SDS011;14780;48.316;-1.050;2024-01-15T08:16:14;6.95;;;5.00;;
18568;SDS011;14780;48.316;-1.050;2024-01-15T08:18:59;7.78;;;5.28;;
18568;SDS011;14780;48.316;-1.050;2024-01-15T08:21:44;9.63;;;5.10;;
18568;SDS011;14780;48.316;-1.050;2024-01-15T08:24:29;6.57;;;4.68;;
18568;SDS011;14780;48.316;-1.050;2024-01-15T08:27:15;7.65;;;4.88;;
18568;SDS011;14780;48.316;-1.050;2024-01-15T08:29:59;6.60;;;4.82;;
18568;SDS011;14780;48.316;-1.050;2024-01-15T08:32:44;8.00;;;4.80;;
18568;SDS011;14780;48.316;-1.050;2024-01-15T08:35:29;6.18;;;4.30;;
18568;SDS011;14780;48.316;-1.050;2024-01-15T08:38:13;6.13;;;4.35;;
18568;SDS011;14780;48.316;-1.050;2024-01-15T08:40:58;7.22;;;4.63;;
18568;SDS011;14780;48.316;-1.050;2024-01-15T08:43:44;7.57;;;4.68;;
18568;SDS011;14780;48.316;-1.050;2024-01-15T08:46:29;7.03;;;4.78;;
18568;SDS011;14780;48.316;-1.050;2024-01-15T08:49:13;6.15;;;4.55;;
18568;SDS011;14780;48.316;-1.050;2024-01-15T08:51:58;7.50;;;4.47;;
18568;SDS011;14780;48.316;-1.050;2024-01-15T08:54:42;5.35;;;4.07;;
18568;SDS011;14780;48.316;-1.050;2024-01-15T08:57:27;6.03;;;4.30;;
18568;SDS011;14780;48.316;-1.050;2024-01-15T09:00:11;5.88;;;4.28;;
18568;SDS011;14780;48.316;-1.050;2024-01-15T09:02:58;6.45;;;4.20;;
18568;SDS011;14780;48.316;-1.050;2024-01-15T09:05:42;6.75;;;4.13;;
18568;SDS011;14780;48.316;-1.050;2024-01-15T09:08:27;6.72;;;4.22;;
18568;SDS011;14780;48.316;-1.050;2024-01-15T09:11:12;5.68;;;4.07;;
18568;SDS011;14780;48.316;-1.050;2024-01-15T09:13:57;6.43;;;4.10;;
18568;SDS011;14780;48.316;-1.050;2024-01-15T09:16:42;6.25;;;4.28;;
18568;SDS011;14780;48.316;-1.050;2024-01-15T09:19:26;6.38;;;4.18;;
18568;SDS011;14780;48.316;-1.050;2024-01-15T09:22:12;6.70;;;4.37;;
18568;SDS011;14780;48.316;-1.050;2024-01-15T09:24:58;5.90;;;4.07;;
18568;SDS011;14780;48.316;-1.050;2024-01-15T09:27:42;5.50;;;4.00;;
18568;SDS011;14780;48.316;-1.050;2024-01-15T09:30:27;5.68;;;4.07;;
18568;SDS011;14780;48.316;-1.050;2024-01-15T09:33:11;5.53;;;4.13;;
18568;SDS011;14780;48.316;-1.050;2024-01-15T09:35:56;5.07;;;3.92;;
18568;SDS011;14780;48.316;-1.050;2024-01-15T09:38:41;5.03;;;3.67;;
18568;SDS011;14780;48.316;-1.050;2024-01-15T09:41:26;5.50;;;4.10;;
18568;SDS011;14780;48.316;-1.050;2024-01-15T09:44:11;6.40;;;3.72;;
18568;SDS011;14780;48.316;-1.050;2024-01-15T09:46:57;5.10;;;3.72;;
18568;SDS011;14780;48.316;-1.050;2024-01-15T09:49:42;5.10;;;3.80;;
18568;SDS011;14780;48.316;-1.050;2024-01-15T09:52:27;5.60;;;3.70;;
18568;SDS011;14780;48.316;-1.050;2024-01-15T09:55:13;5.28;;;3.80;;
18568;SDS011;14780;48.316;-1.050;2024-01-15T09:58:01;5.03;;;3.50;;
18568;SDS011;14780;48.316;-1.050;2024-01-15T10:00:47;5.78;;;3.80;;
18568;SDS011;14780;48.316;-1.050;2024-01-15T10:03:34;4.97;;;3.38;;
18568;SDS011;14780;48.316;-1.050;2024-01-15T10:06:19;4.50;;;3.40;;
18568;SDS011;14780;48.316;-1.050;2024-01-15T10:09:05;5.95;;;3.53;;
18568;SDS011;14780;48.316;-1.050;2024-01-15T10:11:51;4.68;;;3.63;;
18568;SDS011;14780;48.316;-1.050;2024-01-15T10:14:36;5.03;;;3.40;;
18568;SDS011;14780;48.316;-1.050;2024-01-15T10:17:21;4.85;;;3.55;;
18568;SDS011;14780;48.316;-1.050;2024-01-15T10:20:08;4.82;;;3.50;;
18568;SDS011;14780;48.316;-1.050;2024-01-15T10:22:54;5.10;;;3.40;;
18568;SDS011;14780;48.316;-1.050;2024-01-15T10:25:41;4.15;;;3.20;;
18568;SDS011;14780;48.316;-1.050;2024-01-15T10:28:26;3.88;;;3.00;;
18568;SDS011;14780;48.316;-1.050;2024-01-15T10:31:13;4.28;;;3.28;;
18568;SDS011;14780;48.316;-1.050;2024-01-15T10:34:11;5.00;;;3.40;;
18568;SDS011;14780;48.316;-1.050;2024-01-15T10:36:59;4.70;;;3.03;;
18568;SDS011;14780;48.316;-1.050;2024-01-15T10:39:46;5.88;;;3.20;;
18568;SDS011;14780;48.316;-1.050;2024-01-15T10:42:33;4.90;;;3.30;;
18568;SDS011;14780;48.316;-1.050;2024-01-15T10:45:18;4.15;;;2.95;;
18568;SDS011;14780;48.316;-1.050;2024-01-15T10:48:03;4.65;;;3.17;;
18568;SDS011;14780;48.316;-1.050;2024-01-15T10:50:48;4.78;;;3.20;;
18568;SDS011;14780;48.316;-1.050;2024-01-15T10:53:33;5.17;;;3.37;;
18568;SDS011;14780;48.316;-1.050;2024-01-15T10:56:27;5.43;;;3.17;;
18568;SDS011;14780;48.316;-1.050;2024-01-15T10:59:13;4.20;;;2.70;;
18568;SDS011;14780;48.316;-1.050;2024-01-15T11:01:58;4.60;;;3.15;;
18568;SDS011;14780;48.316;-1.050;2024-01-15T11:04:44;4.25;;;3.00;;
18568;SDS011;14780;48.316;-1.050;2024-01-15T11:07:32;6.13;;;3.10;;
18568;SDS011;14780;48.316;-1.050;2024-01-15T11:16:19;5.20;;;2.70;;
18568;SDS011;14780;48.316;-1.050;2024-01-15T11:19:04;3.72;;;2.88;;
18568;SDS011;14780;48.316;-1.050;2024-01-15T11:21:51;5.50;;;2.90;;
18568;SDS011;14780;48.316;-1.050;2024-01-15T11:24:37;4.00;;;2.70;;
18568;SDS011;14780;48.316;-1.050;2024-01-15T11:27:42;6.10;;;3.00;;
18568;SDS011;14780;48.316;-1.050;2024-01-15T11:30:27;4.80;;;2.90;;
18568;SDS011;14780;48.316;-1.050;2024-01-15T11:36:16;4.03;;;2.63;;
18568;SDS011;14780;48.316;-1.050;2024-01-15T11:39:01;4.10;;;2.67;;
18568;SDS011;14780;48.316;-1.050;2024-01-15T11:42:12;3.42;;;2.60;;
18568;SDS011;14780;48.316;-1.050;2024-01-15T11:44:57;7.07;;;2.80;;
18568;SDS011;14780;48.316;-1.050;2024-01-15T11:50:52;3.85;;;2.47;;
18568;SDS011;14780;48.316;-1.050;2024-01-15T11:53:48;4.22;;;2.72;;
18568;SDS011;14780;48.316;-1.050;2024-01-15T11:56:36;3.80;;;2.38;;
18568;SDS011;14780;48.316;-1.050;2024-01-15T11:59:21;3.95;;;2.50;;
18568;SDS011;14780;48.316;-1.050;2024-01-15T12:02:06;4.35;;;2.70;;
18568;SDS011;14780;48.316;-1.050;2024-01-15T12:04:51;3.42;;;2.50;;
18568;SDS011;14780;48.316;-1.050;2024-01-15T12:07:36;4.78;;;2.78;;
18568;SDS011;14780;48.316;-1.050;2024-01-15T12:10:20;3.63;;;2.50;;
18568;SDS011;14780;48.316;-1.050;2024-01-15T12:13:10;3.07;;;2.43;;
18568;SDS011;14780;48.316;-1.050;2024-01-15T12:15:56;3.35;;;2.20;;
18568;SDS011;14780;48.316;-1.050;2024-01-15T12:18:41;2.92;;;2.30;;
18568;SDS011;14780;48.316;-1.050;2024-01-15T12:21:29;5.37;;;2.30;;
18568;SDS011;14780;48.316;-1.050;2024-01-15T12:24:14;4.10;;;2.30;;
18568;SDS011;14780;48.316;-1.050;2024-01-15T12:27:01;6.55;;;2.50;;
18568;SDS011;14780;48.316;-1.050;2024-01-15T12:29:47;4.35;;;2.20;;
18568;SDS011;14780;48.316;-1.050;2024-01-15T12:32:31;3.75;;;2.28;;
18568;SDS011;14780;48.316;-1.050;2024-01-15T12:35:16;3.90;;;2.40;;
18568;SDS011;14780;48.316;-1.050;2024-01-15T12:38:01;3.25;;;2.35;;
18568;SDS011;14780;48.316;-1.050;2024-01-15T12:40:46;3.55;;;2.35;;
18568;SDS011;14780;48.316;-1.050;2024-01-15T12:43:32;3.47;;;2.20;;
18568;SDS011;14780;48.316;-1.050;2024-01-15T12:46:17;3.90;;;2.20;;
18568;SDS011;14780;48.316;-1.050;2024-01-15T12:49:03;3.25;;;2.20;;
18568;SDS011;14780;48.316;-1.050;2024-01-15T12:51:52;3.17;;;2.30;;
18568;SDS011;14780;48.316;-1.050;2024-01-15T12:54:37;4.10;;;2.40;;
18568;SDS011;14780;48.316;-1.050;2024-01-15T12:57:22;5.65;;;2.35;;
18568;SDS011;14780;48.316;-1.050;2024-01-15T13:00:07;5.53;;;2.20;;
18568;SDS011;14780;48.316;-1.050;2024-01-15T13:02:56;2.70;;;2.20;;
18568;SDS011;14780;48.316;-1.050;2024-01-15T13:05:41;3.92;;;2.20;;
18568;SDS011;14780;48.316;-1.050;2024-01-15T13:08:26;2.53;;;2.00;;
18568;SDS011;14780;48.316;-1.050;2024-01-15T13:11:13;2.60;;;2.00;;
18568;SDS011;14780;48.316;-1.050;2024-01-15T13:13:58;2.85;;;2.00;;
18568;SDS011;14780;48.316;-1.050;2024-01-15T13:16:43;2.50;;;1.92;;
18568;SDS011;14780;48.316;-1.050;2024-01-15T13:19:27;2.88;;;2.00;;
18568;SDS011;14780;48.316;-1.050;2024-01-15T13:22:12;2.55;;;1.90;;
18568;SDS011;14780;48.316;-1.050;2024-01-15T13:24:57;2.55;;;2.00;;
18568;SDS011;14780;48.316;-1.050;2024-01-15T13:27:42;2.85;;;2.00;;
18568;SDS011;14780;48.316;-1.050;2024-01-15T13:30:27;3.13;;;2.10;;
18568;SDS011;14780;48.316;-1.050;2024-01-15T13:33:12;2.13;;;1.73;;
18568;SDS011;14780;48.316;-1.050;2024-01-15T13:35:56;2.92;;;1.83;;
18568;SDS011;14780;48.316;-1.050;2024-01-15T13:38:41;2.65;;;1.77;;
18568;SDS011;14780;48.316;-1.050;2024-01-15T13:41:26;1.80;;;1.60;;
18568;SDS011;14780;48.316;-1.050;2024-01-15T13:44:11;3.05;;;1.88;;
18568;SDS011;14780;48.316;-1.050;2024-01-15T13:46:55;2.67;;;1.80;;
18568;SDS011;14780;48.316;-1.050;2024-01-15T13:49:40;1.95;;;1.67;;
18568;SDS011;14780;48.316;-1.050;2024-01-15T13:52:25;2.25;;;1.80;;
18568;SDS011;14780;48.316;-1.050;2024-01-15T13:55:11;2.05;;;1.58;;
18568;SDS011;14780;48.316;-1.050;2024-01-15T13:57:56;2.55;;;1.80;;
18568;SDS011;14780;48.316;-1.050;2024-01-15T14:00:41;4.50;;;1.60;;
18568;SDS011;14780;48.316;-1.050;2024-01-15T14:03:25;2.72;;;1.70;;
18568;SDS011;14780;48.316;-1.050;2024-01-15T14:06:10;2.15;;;1.52;;
18568;SDS011;14780;48.316;-1.050;2024-01-15T14:08:55;1.88;;;1.35;;
18568;SDS011;14780;48.316;-1.050;2024-01-15T14:11:39;2.47;;;1.70;;
18568;SDS011;14780;48.316;-1.050;2024-01-15T14:14:24;2.47;;;1.58;;
18568;SDS011;14780;48.316;-1.050;2024-01-15T14:17:09;2.28;;;1.42;;
18568;SDS011;14780;48.316;-1.050;2024-01-15T14:19:54;3.30;;;1.90;;
18568;SDS011;14780;48.316;-1.050;2024-01-15T14:22:38;1.63;;;1.52;;
18568;SDS011;14780;48.316;-1.050;2024-01-15T14:25:23;2.63;;;1.58;;
18568;SDS011;14780;48.316;-1.050;2024-01-15T14:28:08;2.50;;;1.50;;
18568;SDS011;14780;48.316;-1.050;2024-01-15T14:30:52;3.03;;;1.30;;
18568;SDS011;14780;48.316;-1.050;2024-01-15T14:33:37;3.17;;;1.48;;
18568;SDS011;14780;48.316;-1.050;2024-01-15T14:36:22;2.58;;;1.50;;
18568;SDS011;14780;48.316;-1.050;2024-01-15T14:39:07;2.40;;;1.45;;
18568;SDS011;14780;48.316;-1.050;2024-01-15T14:41:53;2.13;;;1.42;;
18568;SDS011;14780;48.316;-1.050;2024-01-15T14:44:37;1.60;;;1.33;;
18568;SDS011;14780;48.316;-1.050;2024-01-15T14:47:24;2.72;;;1.63;;
18568;SDS011;14780;48.316;-1.050;2024-01-15T14:50:11;1.77;;;1.50;;
18568;SDS011;14780;48.316;-1.050;2024-01-15T14:52:56;2.50;;;1.40;;
18568;SDS011;14780;48.316;-1.050;2024-01-15T14:55:41;1.95;;;1.30;;
18568;SDS011;14780;48.316;-1.050;2024-01-15T14:58:25;2.03;;;1.25;;
18568;SDS011;14780;48.316;-1.050;2024-01-15T15:01:12;1.50;;;1.30;;
18568;SDS011;14780;48.316;-1.050;2024-01-15T15:03:57;2.22;;;1.58;;
18568;SDS011;14780;48.316;-1.050;2024-01-15T15:06:41;1.77;;;1.40;;
18568;SDS011;14780;48.316;-1.050;2024-01-15T15:09:27;1.70;;;1.20;;
18568;SDS011;14780;48.316;-1.050;2024-01-15T15:12:12;1.80;;;1.30;;
18568;SDS011;14780;48.316;-1.050;2024-01-15T15:14:57;1.77;;;1.20;;
18568;SDS011;14780;48.316;-1.050;2024-01-15T15:17:41;1.88;;;1.20;;
18568;SDS011;14780;48.316;-1.050;2024-01-15T15:20:26;2.35;;;1.38;;
18568;SDS011;14780;48.316;-1.050;2024-01-15T15:23:10;2.15;;;1.38;;
18568;SDS011;14780;48.316;-1.050;2024-01-15T15:25:55;1.70;;;1.15;;
18568;SDS011;14780;48.316;-1.050;2024-01-15T15:28:39;1.25;;;1.15;;
18568;SDS011;14780;48.316;-1.050;2024-01-15T15:31:24;1.95;;;1.20;;
18568;SDS011;14780;48.316;-1.050;2024-01-15T15:34:08;1.20;;;1.10;;
18568;SDS011;14780;48.316;-1.050;2024-01-15T15:36:53;1.93;;;1.40;;
18568;SDS011;14780;48.316;-1.050;2024-01-15T15:39:38;1.17;;;1.08;;
18568;SDS011;14780;48.316;-1.050;2024-01-15T15:42:22;2.10;;;1.40;;
18568;SDS011;14780;48.316;-1.050;2024-01-15T15:45:08;1.63;;;1.30;;
18568;SDS011;14780;48.316;-1.050;2024-01-15T15:47:55;1.83;;;1.33;;
18568;SDS011;14780;48.316;-1.050;2024-01-15T15:50:40;1.95;;;1.48;;
18568;SDS011;14780;48.316;-1.050;2024-01-15T15:53:25;2.92;;;1.50;;
18568;SDS011;14780;48.316;-1.050;2024-01-15T15:56:09;2.08;;;1.38;;
18568;SDS011;14780;48.316;-1.050;2024-01-15T15:58:54;1.50;;;1.40;;
18568;SDS011;14780;48.316;-1.050;2024-01-15T16:01:39;2.53;;;1.43;;
18568;SDS011;14780;48.316;-1.050;2024-01-15T16:04:24;1.83;;;1.50;;
18568;SDS011;14780;48.316;-1.050;2024-01-15T16:07:08;2.77;;;1.87;;
18568;SDS011;14780;48.316;-1.050;2024-01-15T16:09:55;2.10;;;1.80;;
18568;SDS011;14780;48.316;-1.050;2024-01-15T16:12:40;3.13;;;1.75;;
18568;SDS011;14780;48.316;-1.050;2024-01-15T16:15:25;2.92;;;1.83;;
18568;SDS011;14780;48.316;-1.050;2024-01-15T16:18:11;3.85;;;1.92;;
18568;SDS011;14780;48.316;-1.050;2024-01-15T16:20:56;3.45;;;1.90;;
18568;SDS011;14780;48.316;-1.050;2024-01-15T16:23:41;3.58;;;1.90;;
18568;SDS011;14780;48.316;-1.050;2024-01-15T16:26:26;4.38;;;1.90;;
18568;SDS011;14780;48.316;-1.050;2024-01-15T16:29:11;4.93;;;2.13;;
18568;SDS011;14780;48.316;-1.050;2024-01-15T16:31:56;5.20;;;2.15;;